sensor_id;sensor_type;location;lat;lon;timestamp;P1;durP1;ratioP1;P2;durP2;ratioP2
16262;SDS011;8239;48.594;8.598;2023-03-16T00:00:13;7.53;;;4.77;;
16262;SDS011;8239;48.594;8.598;2023-03-16T00:02:41;11.03;;;4.90;;
16262;SDS011;8239;48.594;8.598;2023-03-16T00:05:09;7.77;;;4.17;;
16262;SDS011;8239;48.594;8.598;2023-03-16T00:07:39;6.27;;;4.00;;
16262;SDS011;8239;48.594;8.598;2023-03-16T00:10:07;6.73;;;4.00;;
16262;SDS011;8239;48.594;8.598;2023-03-16T00:12:36;7.20;;;4.40;;
16262;SDS011;8239;48.594;8.598;2023-03-16T00:15:04;6.17;;;3.90;;
16262;SDS011;8239;48.594;8.598;2023-03-16T00:17:31;7.33;;;4.37;;
16262;SDS011;8239;48.594;8.598;2023-03-16T00:20:01;5.53;;;3.90;;
16262;SDS011;8239;48.594;8.598;2023-03-16T00:22:31;6.07;;;3.90;;
16262;SDS011;8239;48.594;8.598;2023-03-16T00:24:59;5.77;;;3.90;;
16262;SDS011;8239;48.594;8.598;2023-03-16T00:27:26;5.73;;;3.83;;
16262;SDS011;8239;48.594;8.598;2023-03-16T00:29:53;6.97;;;4.17;;
16262;SDS011;8239;48.594;8.598;2023-03-16T00:32:21;4.50;;;3.83;;
16262;SDS011;8239;48.594;8.598;2023-03-16T00:34:49;6.77;;;4.37;;
16262;SDS011;8239;48.594;8.598;2023-03-16T00:37:17;6.97;;;4.17;;
16262;SDS011;8239;48.594;8.598;2023-03-16T00:39:47;6.27;;;4.40;;
16262;SDS011;8239;48.594;8.598;2023-03-16T00:42:17;6.20;;;4.10;;
16262;SDS011;8239;48.594;8.598;2023-03-16T00:44:45;5.20;;;3.27;;
16262;SDS011;8239;48.594;8.598;2023-03-16T00:47:12;5.83;;;3.93;;
16262;SDS011;8239;48.594;8.598;2023-03-16T00:49:40;6.30;;;3.83;;
16262;SDS011;8239;48.594;8.598;2023-03-16T00:52:08;6.33;;;4.37;;
16262;SDS011;8239;48.594;8.598;2023-03-16T00:54:39;8.77;;;4.50;;
16262;SDS011;8239;48.594;8.598;2023-03-16T00:57:08;6.43;;;3.80;;
16262;SDS011;8239;48.594;8.598;2023-03-16T00:59:37;4.90;;;4.00;;
16262;SDS011;8239;48.594;8.598;2023-03-16T01:02:05;7.77;;;4.10;;
16262;SDS011;8239;48.594;8.598;2023-03-16T01:04:33;5.67;;;3.93;;
16262;SDS011;8239;48.594;8.598;2023-03-16T01:07:01;6.50;;;4.17;;
16262;SDS011;8239;48.594;8.598;2023-03-16T01:09:28;5.67;;;4.10;;
16262;SDS011;8239;48.594;8.598;2023-03-16T01:11:55;7.17;;;4.23;;
16262;SDS011;8239;48.594;8.598;2023-03-16T01:14:22;6.07;;;3.97;;
16262;SDS011;8239;48.594;8.598;2023-03-16T01:16:50;6.03;;;3.60;;
16262;SDS011;8239;48.594;8.598;2023-03-16T01:19:17;6.87;;;4.07;;
16262;SDS011;8239;48.594;8.598;2023-03-16T01:21:47;4.43;;;3.53;;
16262;SDS011;8239;48.594;8.598;2023-03-16T01:24:14;7.23;;;3.67;;
16262;SDS011;8239;48.594;8.598;2023-03-16T01:26:41;10.53;;;4.43;;
16262;SDS011;8239;48.594;8.598;2023-03-16T01:29:09;28.10;;;4.73;;
16262;SDS011;8239;48.594;8.598;2023-03-16T01:31:37;18.03;;;4.80;;
16262;SDS011;8239;48.594;8.598;2023-03-16T01:34:05;8.93;;;4.80;;
16262;SDS011;8239;48.594;8.598;2023-03-16T01:36:32;6.37;;;4.27;;
16262;SDS011;8239;48.594;8.598;2023-03-16T01:38:59;8.27;;;4.37;;
16262;SDS011;8239;48.594;8.598;2023-03-16T01:41:26;9.73;;;4.50;;
16262;SDS011;8239;48.594;8.598;2023-03-16T01:43:53;9.47;;;4.80;;
16262;SDS011;8239;48.594;8.598;2023-03-16T01:46:24;24.30;;;5.83;;
16262;SDS011;8239;48.594;8.598;2023-03-16T01:48:57;107.10;;;8.53;;
16262;SDS011;8239;48.594;8.598;2023-03-16T01:51:34;115.43;;;9.03;;
16262;SDS011;8239;48.594;8.598;2023-03-16T01:54:04;17.70;;;5.77;;
16262;SDS011;8239;48.594;8.598;2023-03-16T01:56:36;5.63;;;4.10;;
16262;SDS011;8239;48.594;8.598;2023-03-16T01:59:08;7.13;;;4.20;;
16262;SDS011;8239;48.594;8.598;2023-03-16T02:01:39;6.73;;;4.50;;
16262;SDS011;8239;48.594;8.598;2023-03-16T02:04:09;7.83;;;4.50;;
16262;SDS011;8239;48.594;8.598;2023-03-16T02:06:48;7.80;;;4.17;;
16262;SDS011;8239;48.594;8.598;2023-03-16T02:09:15;7.80;;;4.13;;
16262;SDS011;8239;48.594;8.598;2023-03-16T02:11:43;6.90;;;4.13;;
16262;SDS011;8239;48.594;8.598;2023-03-16T02:14:11;4.70;;;3.83;;
16262;SDS011;8239;48.594;8.598;2023-03-16T02:16:38;6.53;;;4.07;;
16262;SDS011;8239;48.594;8.598;2023-03-16T02:19:08;4.60;;;3.90;;
16262;SDS011;8239;48.594;8.598;2023-03-16T02:21:39;5.27;;;3.87;;
16262;SDS011;8239;48.594;8.598;2023-03-16T02:24:15;6.00;;;4.07;;
16262;SDS011;8239;48.594;8.598;2023-03-16T02:26:43;6.30;;;4.20;;
16262;SDS011;8239;48.594;8.598;2023-03-16T02:29:16;6.70;;;4.13;;
16262;SDS011;8239;48.594;8.598;2023-03-16T02:31:53;5.93;;;4.10;;
16262;SDS011;8239;48.594;8.598;2023-03-16T02:34:21;7.13;;;4.10;;
16262;SDS011;8239;48.594;8.598;2023-03-16T02:36:49;7.07;;;4.40;;
16262;SDS011;8239;48.594;8.598;2023-03-16T02:39:18;8.10;;;4.83;;
16262;SDS011;8239;48.594;8.598;2023-03-16T02:41:45;8.57;;;4.77;;
16262;SDS011;8239;48.594;8.598;2023-03-16T02:44:13;5.70;;;3.80;;
16262;SDS011;8239;48.594;8.598;2023-03-16T02:46:43;4.67;;;3.10;;
16262;SDS011;8239;48.594;8.598;2023-03-16T02:49:14;7.80;;;4.40;;
16262;SDS011;8239;48.594;8.598;2023-03-16T02:51:46;8.23;;;4.67;;
16262;SDS011;8239;48.594;8.598;2023-03-16T02:54:13;21.67;;;7.90;;
16262;SDS011;8239;48.594;8.598;2023-03-16T02:56:40;12.67;;;6.63;;
16262;SDS011;8239;48.594;8.598;2023-03-16T02:59:07;13.33;;;6.03;;
16262;SDS011;8239;48.594;8.598;2023-03-16T03:01:34;8.67;;;4.83;;
16262;SDS011;8239;48.594;8.598;2023-03-16T03:04:02;7.60;;;4.70;;
16262;SDS011;8239;48.594;8.598;2023-03-16T03:09:00;28.90;;;17.43;;
16262;SDS011;8239;48.594;8.598;2023-03-16T03:11:28;14.13;;;8.77;;
16262;SDS011;8239;48.594;8.598;2023-03-16T03:13:55;11.23;;;5.80;;
16262;SDS011;8239;48.594;8.598;2023-03-16T03:16:22;10.40;;;5.57;;
16262;SDS011;8239;48.594;8.598;2023-03-16T03:18:50;11.70;;;6.13;;
16262;SDS011;8239;48.594;8.598;2023-03-16T03:21:17;16.77;;;6.00;;
16262;SDS011;8239;48.594;8.598;2023-03-16T03:23:46;34.40;;;9.27;;
16262;SDS011;8239;48.594;8.598;2023-03-16T03:26:13;24.30;;;7.67;;
16262;SDS011;8239;48.594;8.598;2023-03-16T03:28:41;13.37;;;6.83;;
16262;SDS011;8239;48.594;8.598;2023-03-16T03:31:11;12.17;;;5.50;;
16262;SDS011;8239;48.594;8.598;2023-03-16T03:33:39;7.90;;;5.00;;
16262;SDS011;8239;48.594;8.598;2023-03-16T03:36:06;14.50;;;6.80;;
16262;SDS011;8239;48.594;8.598;2023-03-16T03:38:33;27.37;;;8.00;;
16262;SDS011;8239;48.594;8.598;2023-03-16T03:41:02;60.17;;;10.80;;
16262;SDS011;8239;48.594;8.598;2023-03-16T03:43:31;59.83;;;10.63;;
16262;SDS011;8239;48.594;8.598;2023-03-16T03:45:59;98.03;;;10.73;;
16262;SDS011;8239;48.594;8.598;2023-03-16T03:48:27;140.67;;;12.27;;
16262;SDS011;8239;48.594;8.598;2023-03-16T03:50:54;109.87;;;12.00;;
16262;SDS011;8239;48.594;8.598;2023-03-16T03:53:21;79.40;;;9.30;;
16262;SDS011;8239;48.594;8.598;2023-03-16T03:55:48;59.97;;;9.33;;
16262;SDS011;8239;48.594;8.598;2023-03-16T03:58:17;166.27;;;12.67;;
16262;SDS011;8239;48.594;8.598;2023-03-16T04:00:44;237.30;;;16.23;;
16262;SDS011;8239;48.594;8.598;2023-03-16T04:03:11;116.30;;;10.73;;
16262;SDS011;8239;48.594;8.598;2023-03-16T04:05:38;105.13;;;11.00;;
16262;SDS011;8239;48.594;8.598;2023-03-16T04:08:05;45.93;;;10.87;;
16262;SDS011;8239;48.594;8.598;2023-03-16T04:10:32;212.70;;;14.57;;
16262;SDS011;8239;48.594;8.598;2023-03-16T04:12:59;72.77;;;8.83;;
16262;SDS011;8239;48.594;8.598;2023-03-16T04:15:27;103.73;;;9.97;;
16262;SDS011;8239;48.594;8.598;2023-03-16T04:17:57;102.57;;;10.17;;
16262;SDS011;8239;48.594;8.598;2023-03-16T04:20:24;69.03;;;8.30;;
16262;SDS011;8239;48.594;8.598;2023-03-16T04:22:51;46.10;;;8.50;;
16262;SDS011;8239;48.594;8.598;2023-03-16T04:25:22;89.73;;;9.07;;
16262;SDS011;8239;48.594;8.598;2023-03-16T04:27:50;49.27;;;8.93;;
16262;SDS011;8239;48.594;8.598;2023-03-16T04:30:17;68.43;;;9.93;;
16262;SDS011;8239;48.594;8.598;2023-03-16T04:32:46;220.33;;;12.87;;
16262;SDS011;8239;48.594;8.598;2023-03-16T04:35:13;206.83;;;13.10;;
16262;SDS011;8239;48.594;8.598;2023-03-16T04:37:41;121.33;;;10.77;;
16262;SDS011;8239;48.594;8.598;2023-03-16T04:40:09;105.60;;;10.73;;
16262;SDS011;8239;48.594;8.598;2023-03-16T04:42:40;116.77;;;11.80;;
16262;SDS011;8239;48.594;8.598;2023-03-16T04:45:08;82.73;;;9.53;;
16262;SDS011;8239;48.594;8.598;2023-03-16T04:47:36;68.53;;;10.00;;
16262;SDS011;8239;48.594;8.598;2023-03-16T04:50:05;117.57;;;13.17;;
16262;SDS011;8239;48.594;8.598;2023-03-16T04:52:34;103.10;;;14.77;;
16262;SDS011;8239;48.594;8.598;2023-03-16T04:55:01;79.10;;;10.07;;
16262;SDS011;8239;48.594;8.598;2023-03-16T04:57:30;97.00;;;10.53;;
16262;SDS011;8239;48.594;8.598;2023-03-16T04:59:57;112.03;;;9.93;;
16262;SDS011;8239;48.594;8.598;2023-03-16T05:02:24;60.10;;;9.80;;
16262;SDS011;8239;48.594;8.598;2023-03-16T05:04:51;52.33;;;8.90;;
16262;SDS011;8239;48.594;8.598;2023-03-16T05:07:20;65.73;;;10.53;;
16262;SDS011;8239;48.594;8.598;2023-03-16T05:09:47;80.00;;;12.00;;
16262;SDS011;8239;48.594;8.598;2023-03-16T05:12:14;188.77;;;27.37;;
16262;SDS011;8239;48.594;8.598;2023-03-16T05:14:41;174.97;;;34.00;;
16262;SDS011;8239;48.594;8.598;2023-03-16T05:17:08;109.77;;;17.00;;
16262;SDS011;8239;48.594;8.598;2023-03-16T05:19:38;43.63;;;10.90;;
16262;SDS011;8239;48.594;8.598;2023-03-16T05:22:06;47.40;;;11.70;;
16262;SDS011;8239;48.594;8.598;2023-03-16T05:24:35;45.40;;;10.27;;
16262;SDS011;8239;48.594;8.598;2023-03-16T05:27:02;61.47;;;10.40;;
16262;SDS011;8239;48.594;8.598;2023-03-16T05:29:29;29.50;;;9.13;;
16262;SDS011;8239;48.594;8.598;2023-03-16T05:31:57;58.37;;;10.57;;
16262;SDS011;8239;48.594;8.598;2023-03-16T05:34:24;39.13;;;9.23;;
16262;SDS011;8239;48.594;8.598;2023-03-16T05:36:52;43.03;;;9.83;;
16262;SDS011;8239;48.594;8.598;2023-03-16T05:39:18;41.30;;;10.33;;
16262;SDS011;8239;48.594;8.598;2023-03-16T05:41:48;43.67;;;10.87;;
16262;SDS011;8239;48.594;8.598;2023-03-16T05:44:15;96.10;;;11.23;;
16262;SDS011;8239;48.594;8.598;2023-03-16T05:46:43;60.70;;;10.30;;
16262;SDS011;8239;48.594;8.598;2023-03-16T05:49:10;52.50;;;10.53;;
16262;SDS011;8239;48.594;8.598;2023-03-16T05:51:38;21.20;;;9.57;;
16262;SDS011;8239;48.594;8.598;2023-03-16T05:54:05;76.80;;;11.90;;
16262;SDS011;8239;48.594;8.598;2023-03-16T05:56:32;61.30;;;11.43;;
16262;SDS011;8239;48.594;8.598;2023-03-16T05:59:00;98.00;;;11.87;;
16262;SDS011;8239;48.594;8.598;2023-03-16T06:01:27;35.30;;;9.63;;
16262;SDS011;8239;48.594;8.598;2023-03-16T06:03:54;39.63;;;10.43;;
16262;SDS011;8239;48.594;8.598;2023-03-16T06:06:21;43.73;;;10.00;;
16262;SDS011;8239;48.594;8.598;2023-03-16T06:08:48;168.77;;;14.80;;
16262;SDS011;8239;48.594;8.598;2023-03-16T06:11:15;114.00;;;12.13;;
16262;SDS011;8239;48.594;8.598;2023-03-16T06:13:42;211.57;;;16.20;;
16262;SDS011;8239;48.594;8.598;2023-03-16T06:16:10;145.70;;;12.50;;
16262;SDS011;8239;48.594;8.598;2023-03-16T06:18:38;68.67;;;10.73;;
16262;SDS011;8239;48.594;8.598;2023-03-16T06:21:05;128.50;;;12.60;;
16262;SDS011;8239;48.594;8.598;2023-03-16T06:23:32;70.00;;;9.57;;
16262;SDS011;8239;48.594;8.598;2023-03-16T06:25:59;64.30;;;8.87;;
16262;SDS011;8239;48.594;8.598;2023-03-16T06:28:26;47.97;;;8.00;;
16262;SDS011;8239;48.594;8.598;2023-03-16T06:30:53;19.00;;;6.57;;
16262;SDS011;8239;48.594;8.598;2023-03-16T06:33:22;23.27;;;7.37;;
16262;SDS011;8239;48.594;8.598;2023-03-16T06:35:49;13.00;;;7.67;;
16262;SDS011;8239;48.594;8.598;2023-03-16T06:38:16;16.90;;;6.80;;
16262;SDS011;8239;48.594;8.598;2023-03-16T06:40:44;37.13;;;6.50;;
16262;SDS011;8239;48.594;8.598;2023-03-16T06:43:11;7.67;;;5.70;;
16262;SDS011;8239;48.594;8.598;2023-03-16T06:45:37;12.40;;;5.83;;
16262;SDS011;8239;48.594;8.598;2023-03-16T06:48:05;12.20;;;5.60;;
16262;SDS011;8239;48.594;8.598;2023-03-16T06:50:35;8.33;;;5.40;;
16262;SDS011;8239;48.594;8.598;2023-03-16T06:53:02;7.13;;;5.17;;
16262;SDS011;8239;48.594;8.598;2023-03-16T06:55:29;62.60;;;6.77;;
16262;SDS011;8239;48.594;8.598;2023-03-16T06:57:56;175.20;;;10.63;;
16262;SDS011;8239;48.594;8.598;2023-03-16T07:00:23;211.80;;;11.13;;
16262;SDS011;8239;48.594;8.598;2023-03-16T07:02:51;120.20;;;9.50;;
16262;SDS011;8239;48.594;8.598;2023-03-16T07:05:18;61.67;;;6.57;;
16262;SDS011;8239;48.594;8.598;2023-03-16T07:07:46;37.33;;;5.90;;
16262;SDS011;8239;48.594;8.598;2023-03-16T07:10:14;17.27;;;5.73;;
16262;SDS011;8239;48.594;8.598;2023-03-16T07:12:43;6.60;;;5.33;;
16262;SDS011;8239;48.594;8.598;2023-03-16T07:15:11;10.50;;;5.57;;
16262;SDS011;8239;48.594;8.598;2023-03-16T07:17:38;27.70;;;6.80;;
16262;SDS011;8239;48.594;8.598;2023-03-16T07:20:07;16.70;;;7.50;;
16262;SDS011;8239;48.594;8.598;2023-03-16T07:22:36;6.80;;;4.83;;
16262;SDS011;8239;48.594;8.598;2023-03-16T07:25:07;4.43;;;3.90;;
16262;SDS011;8239;48.594;8.598;2023-03-16T07:27:35;4.60;;;4.10;;
16262;SDS011;8239;48.594;8.598;2023-03-16T07:30:03;4.10;;;3.77;;
16262;SDS011;8239;48.594;8.598;2023-03-16T07:32:30;3.53;;;3.30;;
16262;SDS011;8239;48.594;8.598;2023-03-16T07:34:57;3.70;;;3.23;;
16262;SDS011;8239;48.594;8.598;2023-03-16T07:37:25;3.60;;;3.30;;
16262;SDS011;8239;48.594;8.598;2023-03-16T07:39:52;3.42;;;3.20;;
16262;SDS011;8239;48.594;8.598;2023-03-16T07:42:20;3.95;;;3.65;;
16262;SDS011;8239;48.594;8.598;2023-03-16T07:44:47;4.25;;;3.72;;
16262;SDS011;8239;48.594;8.598;2023-03-16T07:47:16;5.70;;;5.20;;
16262;SDS011;8239;48.594;8.598;2023-03-16T07:49:43;4.53;;;4.13;;
16262;SDS011;8239;48.594;8.598;2023-03-16T07:52:10;5.70;;;5.28;;
16262;SDS011;8239;48.594;8.598;2023-03-16T07:54:38;5.30;;;4.90;;
16262;SDS011;8239;48.594;8.598;2023-03-16T07:57:05;5.70;;;5.20;;
16262;SDS011;8239;48.594;8.598;2023-03-16T07:59:33;12.00;;;10.90;;
16262;SDS011;8239;48.594;8.598;2023-03-16T08:02:00;17.20;;;15.80;;
16262;SDS011;8239;48.594;8.598;2023-03-16T08:04:28;8.93;;;8.23;;
16262;SDS011;8239;48.594;8.598;2023-03-16T08:06:55;9.07;;;8.38;;
16262;SDS011;8239;48.594;8.598;2023-03-16T08:09:24;7.40;;;6.80;;
16262;SDS011;8239;48.594;8.598;2023-03-16T08:11:51;5.97;;;5.50;;
16262;SDS011;8239;48.594;8.598;2023-03-16T08:14:18;6.25;;;5.85;;
16262;SDS011;8239;48.594;8.598;2023-03-16T08:16:47;5.95;;;5.45;;
16262;SDS011;8239;48.594;8.598;2023-03-16T08:19:14;4.78;;;4.38;;
16262;SDS011;8239;48.594;8.598;2023-03-16T08:21:41;3.42;;;3.13;;
16262;SDS011;8239;48.594;8.598;2023-03-16T08:24:09;4.05;;;3.75;;
16262;SDS011;8239;48.594;8.598;2023-03-16T08:26:35;3.97;;;3.67;;
16262;SDS011;8239;48.594;8.598;2023-03-16T08:29:02;4.03;;;3.72;;
16262;SDS011;8239;48.594;8.598;2023-03-16T08:31:30;4.55;;;4.15;;
16262;SDS011;8239;48.594;8.598;2023-03-16T08:34:00;4.68;;;4.28;;
16262;SDS011;8239;48.594;8.598;2023-03-16T08:36:28;4.28;;;3.88;;
16262;SDS011;8239;48.594;8.598;2023-03-16T08:38:55;4.18;;;3.45;;
16262;SDS011;8239;48.594;8.598;2023-03-16T08:41:24;3.78;;;3.47;;
16262;SDS011;8239;48.594;8.598;2023-03-16T08:43:54;4.35;;;3.95;;
16262;SDS011;8239;48.594;8.598;2023-03-16T08:46:21;4.10;;;3.80;;
16262;SDS011;8239;48.594;8.598;2023-03-16T08:48:49;3.97;;;3.65;;
16262;SDS011;8239;48.594;8.598;2023-03-16T08:51:17;4.15;;;3.83;;
16262;SDS011;8239;48.594;8.598;2023-03-16T08:53:44;3.97;;;3.60;;
16262;SDS011;8239;48.594;8.598;2023-03-16T08:56:12;4.18;;;3.83;;
16262;SDS011;8239;48.594;8.598;2023-03-16T08:58:39;3.83;;;3.53;;
16262;SDS011;8239;48.594;8.598;2023-03-16T09:01:09;4.00;;;3.63;;
16262;SDS011;8239;48.594;8.598;2023-03-16T09:03:37;4.20;;;3.80;;
16262;SDS011;8239;48.594;8.598;2023-03-16T09:06:06;3.95;;;3.55;;
16262;SDS011;8239;48.594;8.598;2023-03-16T09:08:36;4.07;;;3.75;;
16262;SDS011;8239;48.594;8.598;2023-03-16T09:11:04;3.38;;;3.10;;
16262;SDS011;8239;48.594;8.598;2023-03-16T09:13:33;3.75;;;3.45;;
16262;SDS011;8239;48.594;8.598;2023-03-16T09:16:01;3.72;;;3.40;;
16262;SDS011;8239;48.594;8.598;2023-03-16T09:18:28;3.70;;;3.40;;
16262;SDS011;8239;48.594;8.598;2023-03-16T09:20:56;3.20;;;3.00;;
16262;SDS011;8239;48.594;8.598;2023-03-16T09:23:23;3.38;;;3.10;;
16262;SDS011;8239;48.594;8.598;2023-03-16T09:25:55;3.40;;;3.10;;
16262;SDS011;8239;48.594;8.598;2023-03-16T09:28:23;3.30;;;3.00;;
16262;SDS011;8239;48.594;8.598;2023-03-16T09:30:51;3.28;;;3.08;;
16262;SDS011;8239;48.594;8.598;2023-03-16T09:33:19;3.58;;;3.28;;
16262;SDS011;8239;48.594;8.598;2023-03-16T09:35:46;3.13;;;2.92;;
16262;SDS011;8239;48.594;8.598;2023-03-16T09:38:13;3.15;;;2.85;;
16262;SDS011;8239;48.594;8.598;2023-03-16T09:40:41;3.17;;;2.90;;
16262;SDS011;8239;48.594;8.598;2023-03-16T09:43:14;3.40;;;3.10;;
16262;SDS011;8239;48.594;8.598;2023-03-16T09:45:55;2.97;;;2.75;;
16262;SDS011;8239;48.594;8.598;2023-03-16T09:48:29;2.95;;;2.50;;
16262;SDS011;8239;48.594;8.598;2023-03-16T09:51:00;2.65;;;2.45;;
16262;SDS011;8239;48.594;8.598;2023-03-16T09:53:32;2.45;;;2.25;;
16262;SDS011;8239;48.594;8.598;2023-03-16T09:56:01;2.15;;;1.95;;
16262;SDS011;8239;48.594;8.598;2023-03-16T09:58:31;2.03;;;1.92;;
16262;SDS011;8239;48.594;8.598;2023-03-16T10:01:02;1.85;;;1.75;;
16262;SDS011;8239;48.594;8.598;2023-03-16T10:03:50;2.28;;;1.95;;
16262;SDS011;8239;48.594;8.598;2023-03-16T10:06:27;1.73;;;1.63;;
16262;SDS011;8239;48.594;8.598;2023-03-16T10:08:57;2.22;;;1.83;;
16262;SDS011;8239;48.594;8.598;2023-03-16T10:11:31;1.80;;;1.70;;
16262;SDS011;8239;48.594;8.598;2023-03-16T10:14:04;2.70;;;1.90;;
16262;SDS011;8239;48.594;8.598;2023-03-16T10:16:43;2.30;;;2.10;;
16262;SDS011;8239;48.594;8.598;2023-03-16T10:19:15;2.42;;;1.95;;
16262;SDS011;8239;48.594;8.598;2023-03-16T10:21:45;3.70;;;2.17;;
16262;SDS011;8239;48.594;8.598;2023-03-16T10:24:17;2.53;;;1.98;;
16262;SDS011;8239;48.594;8.598;2023-03-16T10:26:53;1.85;;;1.65;;
16262;SDS011;8239;48.594;8.598;2023-03-16T10:29:25;2.33;;;1.80;;
16262;SDS011;8239;48.594;8.598;2023-03-16T10:31:57;3.20;;;2.00;;
16262;SDS011;8239;48.594;8.598;2023-03-16T10:34:26;2.75;;;2.00;;
16262;SDS011;8239;48.594;8.598;2023-03-16T10:36:54;1.92;;;1.67;;
16262;SDS011;8239;48.594;8.598;2023-03-16T10:39:22;1.90;;;1.70;;
16262;SDS011;8239;48.594;8.598;2023-03-16T10:41:53;1.85;;;1.63;;
16262;SDS011;8239;48.594;8.598;2023-03-16T10:44:23;1.95;;;1.85;;
16262;SDS011;8239;48.594;8.598;2023-03-16T10:47:00;2.60;;;1.88;;
16262;SDS011;8239;48.594;8.598;2023-03-16T10:49:34;1.80;;;1.70;;
16262;SDS011;8239;48.594;8.598;2023-03-16T10:52:05;1.83;;;1.73;;
16262;SDS011;8239;48.594;8.598;2023-03-16T10:54:38;2.05;;;1.85;;
16262;SDS011;8239;48.594;8.598;2023-03-16T10:57:12;2.35;;;1.77;;
16262;SDS011;8239;48.594;8.598;2023-03-16T10:59:48;2.45;;;1.85;;
16262;SDS011;8239;48.594;8.598;2023-03-16T11:02:17;1.70;;;1.60;;
16262;SDS011;8239;48.594;8.598;2023-03-16T11:04:47;2.85;;;1.92;;
16262;SDS011;8239;48.594;8.598;2023-03-16T11:07:15;1.98;;;1.70;;
16262;SDS011;8239;48.594;8.598;2023-03-16T11:09:43;1.77;;;1.65;;
16262;SDS011;8239;48.594;8.598;2023-03-16T11:12:13;1.95;;;1.50;;
16262;SDS011;8239;48.594;8.598;2023-03-16T11:14:48;2.60;;;1.70;;
16262;SDS011;8239;48.594;8.598;2023-03-16T11:17:15;2.10;;;1.90;;
16262;SDS011;8239;48.594;8.598;2023-03-16T11:19:48;1.83;;;1.73;;
16262;SDS011;8239;48.594;8.598;2023-03-16T11:22:19;1.95;;;1.67;;
16262;SDS011;8239;48.594;8.598;2023-03-16T11:24:49;2.08;;;1.88;;
16262;SDS011;8239;48.594;8.598;2023-03-16T11:27:21;3.45;;;1.88;;
16262;SDS011;8239;48.594;8.598;2023-03-16T11:29:55;1.90;;;1.70;;
16262;SDS011;8239;48.594;8.598;2023-03-16T11:32:28;1.85;;;1.65;;
16262;SDS011;8239;48.594;8.598;2023-03-16T11:34:59;2.10;;;1.83;;
16262;SDS011;8239;48.594;8.598;2023-03-16T11:37:32;2.08;;;1.88;;
16262;SDS011;8239;48.594;8.598;2023-03-16T11:40:12;2.40;;;1.70;;
16262;SDS011;8239;48.594;8.598;2023-03-16T11:42:52;2.08;;;1.50;;
16262;SDS011;8239;48.594;8.598;2023-03-16T11:45:29;2.00;;;1.75;;
16262;SDS011;8239;48.594;8.598;2023-03-16T11:48:05;3.90;;;1.48;;
16262;SDS011;8239;48.594;8.598;2023-03-16T11:50:59;1.60;;;1.50;;
16262;SDS011;8239;48.594;8.598;2023-03-16T11:53:40;2.20;;;1.55;;
16262;SDS011;8239;48.594;8.598;2023-03-16T11:56:17;1.98;;;1.50;;
16262;SDS011;8239;48.594;8.598;2023-03-16T11:58:57;1.67;;;1.50;;
16262;SDS011;8239;48.594;8.598;2023-03-16T12:01:43;2.00;;;1.80;;
16262;SDS011;8239;48.594;8.598;2023-03-16T12:04:41;2.00;;;1.80;;
16262;SDS011;8239;48.594;8.598;2023-03-16T12:07:22;2.08;;;1.60;;
16262;SDS011;8239;48.594;8.598;2023-03-16T12:10:04;2.65;;;1.73;;
16262;SDS011;8239;48.594;8.598;2023-03-16T12:12:45;2.25;;;1.58;;
16262;SDS011;8239;48.594;8.598;2023-03-16T12:15:24;1.95;;;1.65;;
16262;SDS011;8239;48.594;8.598;2023-03-16T12:17:58;1.70;;;1.60;;
16262;SDS011;8239;48.594;8.598;2023-03-16T12:20:30;1.80;;;1.70;;
16262;SDS011;8239;48.594;8.598;2023-03-16T12:23:10;2.15;;;1.88;;
16262;SDS011;8239;48.594;8.598;2023-03-16T12:25:40;1.73;;;1.63;;
16262;SDS011;8239;48.594;8.598;2023-03-16T12:28:13;2.60;;;1.90;;
16262;SDS011;8239;48.594;8.598;2023-03-16T12:30:49;2.13;;;1.67;;
16262;SDS011;8239;48.594;8.598;2023-03-16T12:33:29;3.92;;;1.80;;
16262;SDS011;8239;48.594;8.598;2023-03-16T12:39:20;2.95;;;1.60;;
16262;SDS011;8239;48.594;8.598;2023-03-16T12:42:01;1.70;;;1.60;;
16262;SDS011;8239;48.594;8.598;2023-03-16T12:44:37;1.70;;;1.60;;
16262;SDS011;8239;48.594;8.598;2023-03-16T12:47:13;3.53;;;1.63;;
16262;SDS011;8239;48.594;8.598;2023-03-16T12:49:46;1.50;;;1.40;;
16262;SDS011;8239;48.594;8.598;2023-03-16T12:52:15;2.47;;;1.50;;
16262;SDS011;8239;48.594;8.598;2023-03-16T12:54:49;1.85;;;1.52;;
16262;SDS011;8239;48.594;8.598;2023-03-16T12:57:17;1.60;;;1.50;;
16262;SDS011;8239;48.594;8.598;2023-03-16T12:59:46;1.50;;;1.40;;
16262;SDS011;8239;48.594;8.598;2023-03-16T13:02:16;2.08;;;1.50;;
16262;SDS011;8239;48.594;8.598;2023-03-16T13:04:48;1.42;;;1.20;;
16262;SDS011;8239;48.594;8.598;2023-03-16T13:07:23;2.50;;;1.48;;
16262;SDS011;8239;48.594;8.598;2023-03-16T13:09:52;1.88;;;1.30;;
16262;SDS011;8239;48.594;8.598;2023-03-16T13:12:24;1.60;;;1.50;;
16262;SDS011;8239;48.594;8.598;2023-03-16T13:14:53;1.77;;;1.60;;
16262;SDS011;8239;48.594;8.598;2023-03-16T13:17:25;1.65;;;1.20;;
16262;SDS011;8239;48.594;8.598;2023-03-16T13:19:59;1.48;;;1.38;;
16262;SDS011;8239;48.594;8.598;2023-03-16T13:22:39;1.40;;;1.30;;
16262;SDS011;8239;48.594;8.598;2023-03-16T13:25:13;1.40;;;1.33;;
16262;SDS011;8239;48.594;8.598;2023-03-16T13:27:42;2.08;;;1.67;;
16262;SDS011;8239;48.594;8.598;2023-03-16T13:30:15;2.20;;;1.80;;
16262;SDS011;8239;48.594;8.598;2023-03-16T13:32:44;1.50;;;1.40;;
16262;SDS011;8239;48.594;8.598;2023-03-16T13:35:15;2.47;;;1.40;;
16262;SDS011;8239;48.594;8.598;2023-03-16T13:37:43;1.60;;;1.50;;
16262;SDS011;8239;48.594;8.598;2023-03-16T13:40:16;1.60;;;1.50;;
16262;SDS011;8239;48.594;8.598;2023-03-16T13:42:46;1.90;;;1.63;;
16262;SDS011;8239;48.594;8.598;2023-03-16T13:45:18;1.70;;;1.60;;
16262;SDS011;8239;48.594;8.598;2023-03-16T13:47:48;1.65;;;1.55;;
16262;SDS011;8239;48.594;8.598;2023-03-16T13:50:17;2.20;;;1.70;;
16262;SDS011;8239;48.594;8.598;2023-03-16T13:52:52;2.75;;;1.70;;
16262;SDS011;8239;48.594;8.598;2023-03-16T13:55:25;1.90;;;1.73;;
16262;SDS011;8239;48.594;8.598;2023-03-16T13:57:57;1.95;;;1.50;;
16262;SDS011;8239;48.594;8.598;2023-03-16T14:00:27;1.80;;;1.70;;
16262;SDS011;8239;48.594;8.598;2023-03-16T14:02:57;1.80;;;1.70;;
16262;SDS011;8239;48.594;8.598;2023-03-16T14:05:31;1.77;;;1.65;;
16262;SDS011;8239;48.594;8.598;2023-03-16T14:08:00;2.22;;;1.75;;
16262;SDS011;8239;48.594;8.598;2023-03-16T14:10:30;1.67;;;1.58;;
16262;SDS011;8239;48.594;8.598;2023-03-16T14:13:05;1.83;;;1.73;;
16262;SDS011;8239;48.594;8.598;2023-03-16T14:15:34;2.10;;;1.90;;
16262;SDS011;8239;48.594;8.598;2023-03-16T14:18:11;5.78;;;1.50;;
16262;SDS011;8239;48.594;8.598;2023-03-16T14:20:42;2.10;;;1.90;;
16262;SDS011;8239;48.594;8.598;2023-03-16T14:23:19;4.53;;;3.80;;
16262;SDS011;8239;48.594;8.598;2023-03-16T14:25:48;3.22;;;2.17;;
16262;SDS011;8239;48.594;8.598;2023-03-16T14:28:18;1.67;;;1.50;;
16262;SDS011;8239;48.594;8.598;2023-03-16T14:31:00;1.92;;;1.80;;
16262;SDS011;8239;48.594;8.598;2023-03-16T14:33:29;1.50;;;1.40;;
16262;SDS011;8239;48.594;8.598;2023-03-16T14:36:05;1.42;;;1.30;;
16262;SDS011;8239;48.594;8.598;2023-03-16T14:38:35;1.50;;;1.40;;
16262;SDS011;8239;48.594;8.598;2023-03-16T14:41:05;2.53;;;1.38;;
16262;SDS011;8239;48.594;8.598;2023-03-16T14:43:43;1.45;;;1.35;;
16262;SDS011;8239;48.594;8.598;2023-03-16T14:46:14;1.75;;;1.42;;
16262;SDS011;8239;48.594;8.598;2023-03-16T14:48:47;1.42;;;1.33;;
16262;SDS011;8239;48.594;8.598;2023-03-16T14:51:16;1.58;;;1.48;;
16262;SDS011;8239;48.594;8.598;2023-03-16T14:53:43;1.83;;;1.40;;
16262;SDS011;8239;48.594;8.598;2023-03-16T14:56:10;1.83;;;1.50;;
16262;SDS011;8239;48.594;8.598;2023-03-16T14:58:38;1.45;;;1.20;;
16262;SDS011;8239;48.594;8.598;2023-03-16T15:01:08;1.85;;;1.25;;
16262;SDS011;8239;48.594;8.598;2023-03-16T15:03:38;2.17;;;1.20;;
16262;SDS011;8239;48.594;8.598;2023-03-16T15:06:07;2.50;;;1.38;;
16262;SDS011;8239;48.594;8.598;2023-03-16T15:08:36;1.20;;;1.20;;
16262;SDS011;8239;48.594;8.598;2023-03-16T15:11:09;1.15;;;1.08;;
16262;SDS011;8239;48.594;8.598;2023-03-16T15:13:37;1.30;;;1.15;;